Data for 12/07/2016

Time Sea-Level Adjusted Pressure Absolute Pressure Temperature Relative Humidity Dew Point   
(mb) (inHg) (mb) (inHg) (C) (F) (%) (C) (F)
00:05 1019 30.09 849 25.07 -16 3.3 69 -20.4 -4.7
00:10 1020 30.12 849 25.07 -15.9 3.4 70 -20.2 -4.4
00:15 1020 30.12 849 25.07 -15.9 3.4 69 -20.3 -4.5
00:20 1020 30.12 849 25.07 -15.9 3.5 70 -20.2 -4.3
00:25 1020 30.12 849 25.07 -15.9 3.5 72 -19.8 -3.6
00:30 1020 30.12 849 25.07 -15.8 3.5 73 -19.6 -3.2
00:35 1020 30.12 849 25.07 -15.8 3.5 70 -20 -4.1
00:40 1020 30.12 849 25.07 -15.6 3.8 69 -20.2 -4.3
00:45 1020 30.12 849 25.07 -15.6 3.9 74 -19.3 -2.7
00:50 1020 30.12 849 25.07 -15.8 3.6 71 -19.9 -3.7
00:55 1020 30.12 849 25.07 -15.9 3.4 75 -19.4 -2.8
01:00 1020 30.12 849 25.07 -15.9 3.4 78 -18.9 -2.1
01:05 1020 30.12 849 25.07 -15.9 3.5 79 -18.7 -1.7
01:10 1020 30.12 850 25.1 -15.9 3.5 80 -18.6 -1.5
01:15 1020 30.12 850 25.1 -15.9 3.4 79 -18.7 -1.7
01:20 1021 30.15 850 25.1 -16 3.2 80 -18.7 -1.7
01:25 1021 30.15 850 25.1 -16 3.2 79 -18.8 -1.9
01:30 1021 30.15 850 25.1 -16.1 3.1 80 -18.8 -1.8
01:35 1021 30.15 850 25.1 -16 3.1 78 -19.1 -2.3
01:40 1021 30.15 850 25.1 -16.3 2.7 79 -19.1 -2.5
01:45 1021 30.15 850 25.1 -16.3 2.6 79 -19.2 -2.6
01:50 1021 30.15 850 25.1 -16.3 2.6 78 -19.3 -2.7
01:55 1021 30.15 850 25.1 -16.3 2.6 80 -19.1 -2.3
02:00 1021 30.15 850 25.1 -16.3 2.6 79 -19.2 -2.5
02:05 1021 30.15 850 25.1 -16.3 2.6 79 -19.3 -2.7
02:10 1021 30.15 850 25.1 -16.4 2.6 79 -19.2 -2.6
02:15 1021 30.15 850 25.1 -16.3 2.7 79 -19.1 -2.5
02:20 1021 30.15 850 25.1 -16.2 2.8 78 -19.2 -2.6
02:25 1021 30.15 851 25.13 -16.4 2.5 78 -19.4 -2.8
02:30 1021 30.15 851 25.13 -16.5 2.3 78 -19.5 -3
02:35 1021 30.15 851 25.13 -16.5 2.2 78 -19.6 -3.2
02:40 1021 30.15 851 25.13 -16.4 2.5 78 -19.4 -2.9
02:45 1022 30.18 851 25.13 -16.3 2.7 77 -19.4 -2.9
02:50 1022 30.18 851 25.13 -16.3 2.7 78 -19.3 -2.7
02:55 1022 30.18 851 25.13 -16.2 2.9 77 -19.4 -2.8
03:00 1022 30.18 851 25.13 -16.4 2.5 77 -19.6 -3.2
03:05 1022 30.18 851 25.13 -16.5 2.4 77 -19.6 -3.2
03:10 1022 30.18 851 25.13 -16.6 2.2 79 -19.4 -2.9
03:15 1022 30.18 851 25.13 -16.4 2.6 79 -19.2 -2.6
03:20 1022 30.18 851 25.13 -16.2 2.8 78 -19.3 -2.7
03:25 1022 30.18 851 25.13 -16.2 2.8 77 -19.3 -2.8
03:30 1022 30.18 851 25.13 -16.3 2.7 78 -19.4 -2.8
03:35 1022 30.18 851 25.13 -16.3 2.6 78 -19.3 -2.7
03:40 1022 30.18 851 25.13 -16.3 2.8 78 -19.2 -2.6
03:45 1022 30.18 851 25.13 -16.2 2.8 78 -19.2 -2.6
03:50 1022 30.18 852 25.16 -16.2 2.8 78 -19.2 -2.6
03:55 1022 30.18 852 25.16 -16.2 2.8 77 -19.3 -2.8
04:00 1022 30.18 852 25.16 -16.3 2.7 77 -19.4 -2.9
04:05 1022 30.18 852 25.16 -16.2 2.8 77 -19.4 -2.8
04:10 1022 30.18 852 25.16 -16.3 2.7 78 -19.3 -2.8
04:15 1022 30.18 852 25.16 -16.3 2.6 78 -19.4 -2.9
04:20 1023 30.21 852 25.16 -16.4 2.5 78 -19.4 -3
04:25 1023 30.21 852 25.16 -16.4 2.5 77 -19.5 -3.1
04:30 1023 30.21 852 25.16 -16.5 2.3 77 -19.7 -3.4
04:35 1023 30.21 852 25.16 -16.5 2.2 77 -19.7 -3.4
04:40 1023 30.21 852 25.16 -16.6 2.1 77 -19.7 -3.5
04:45 1023 30.21 852 25.16 -16.6 2 78 -19.7 -3.4
04:50 1023 30.21 852 25.16 -16.6 2.1 77 -19.7 -3.4
04:55 1023 30.21 852 25.16 -16.7 1.9 76 -20 -4
05:00 1023 30.21 852 25.16 -16.8 1.8 77 -20 -4
05:05 1023 30.21 852 25.16 -16.9 1.6 77 -20 -4.1
05:10 1023 30.21 852 25.16 -17 1.4 78 -20.1 -4.1
05:15 1023 30.21 852 25.16 -17 1.4 78 -20 -4
05:20 1023 30.21 852 25.16 -16.9 1.6 77 -20 -4
05:25 1023 30.21 852 25.16 -16.9 1.6 78 -19.9 -3.8
05:30 1023 30.21 852 25.16 -16.8 1.7 78 -19.8 -3.7
05:35 1023 30.21 852 25.16 -16.9 1.5 78 -19.9 -3.7
05:40 1023 30.21 852 25.16 -16.9 1.7 78 -19.8 -3.7
05:45 1023 30.21 852 25.16 -16.9 1.6 78 -19.9 -3.9
05:50 1023 30.21 852 25.16 -17 1.5 78 -20 -3.9
05:55 1023 30.21 853 25.19 -17 1.3 78 -20 -4.1
06:00 1023 30.21 853 25.19 -17 1.5 78 -20 -3.9
06:05 1023 30.21 853 25.19 -16.9 1.6 77 -20 -4
06:10 1023 30.21 853 25.19 -16.9 1.5 77 -20.1 -4.2
06:15 1023 30.21 853 25.19 -17.1 1.2 77 -20.3 -4.5
06:20 1023 30.21 853 25.19 -17.1 1.2 76 -20.5 -4.8
06:25 1023 30.21 853 25.19 -17.2 1.1 77 -20.4 -4.7
06:30 1024 30.24 853 25.19 -17.2 1.1 77 -20.3 -4.5
06:35 1024 30.24 853 25.19 -17.1 1.3 77 -20.2 -4.4
06:40 1024 30.24 853 25.19 -17 1.4 76 -20.2 -4.4
06:45 1024 30.24 853 25.19 -17 1.4 77 -20.1 -4.2
06:50 1024 30.24 853 25.19 -17.1 1.3 77 -20.3 -4.5
06:55 1024 30.24 853 25.19 -17.1 1.3 76 -20.3 -4.6
07:00 1024 30.24 853 25.19 -17 1.4 77 -20.2 -4.3
07:05 1024 30.24 853 25.19 -17 1.5 77 -20.1 -4.3
07:10 1024 30.24 853 25.19 -16.9 1.6 76 -20.1 -4.2
07:15 1024 30.24 853 25.19 -16.8 1.7 75 -20.2 -4.4
07:20 1024 30.24 853 25.19 -16.9 1.6 76 -20.2 -4.3
07:25 1024 30.24 853 25.19 -16.9 1.6 76 -20.1 -4.2
07:30 1024 30.24 853 25.19 -16.9 1.5 76 -20.2 -4.4
07:35 1024 30.24 853 25.19 -17 1.5 77 -20.1 -4.3
07:40 1024 30.24 853 25.19 -16.9 1.6 77 -20 -4.1
07:45 1024 30.24 853 25.19 -16.7 1.9 77 -19.9 -3.9
07:50 1024 30.24 853 25.19 -16.7 2 76 -20 -3.9
07:55 1024 30.24 853 25.19 -16.8 1.8 77 -19.9 -3.8
08:00 1024 30.24 854 25.22 -16.7 1.9 77 -19.8 -3.7
08:05 1024 30.24 854 25.22 -16.7 2 76 -19.9 -3.8
08:10 1024 30.24 854 25.22 -16.7 2 77 -19.8 -3.7
08:15 1025 30.27 854 25.22 -16.7 2 77 -19.8 -3.6
08:20 1025 30.27 854 25.22 -16.6 2.1 77 -19.7 -3.5
08:25 1025 30.27 854 25.22 -16.6 2.1 76 -19.9 -3.9
08:30 1025 30.27 854 25.22 -16.8 1.9 78 -19.8 -3.7
08:35 1025 30.27 854 25.22 -16.8 1.9 78 -19.7 -3.5
08:40 1025 30.27 854 25.22 -16.7 1.9 77 -19.9 -3.9
08:45 1025 30.27 854 25.22 -16.7 1.9 77 -19.9 -3.8
08:50 1025 30.27 854 25.22 -16.7 1.9 76 -19.9 -3.9
08:55 1025 30.27 854 25.22 -16.8 1.8 78 -19.8 -3.7
09:00 1025 30.27 854 25.22 -16.7 2 77 -19.8 -3.6
09:05 1025 30.27 854 25.22 -16.7 2 77 -19.8 -3.7
09:10 1025 30.27 854 25.22 -16.7 1.9 77 -19.8 -3.7
09:15 1025 30.27 854 25.22 -16.7 1.9 76 -20 -4.1
09:20 1025 30.27 854 25.22 -16.7 1.9 77 -19.9 -3.8
09:25 1025 30.27 854 25.22 -16.7 2 78 -19.7 -3.5
09:30 1025 30.27 854 25.22 -16.6 2.2 76 -19.8 -3.7
09:35 1025 30.27 854 25.22 -16.5 2.2 76 -19.8 -3.6
09:40 1025 30.27 854 25.22 -16.6 2.1 76 -19.9 -3.9
09:45 1025 30.27 855 25.25 -16.6 2.1 74 -20.1 -4.2
09:50 1025 30.27 855 25.25 -16.7 2 74 -20.3 -4.6
09:55 1026 30.3 855 25.25 -16.7 2 75 -20.1 -4.2
10:00 1026 30.3 855 25.25 -16.6 2.1 74 -20.2 -4.4
10:05 1026 30.3 855 25.25 -16.5 2.2 75 -20 -4
10:10 1026 30.3 855 25.25 -16.4 2.4 74 -20.1 -4.1
10:15 1026 30.3 855 25.25 -16.5 2.4 73 -20.3 -4.5
10:20 1026 30.3 855 25.25 -16.5 2.2 73 -20.3 -4.6
10:25 1026 30.3 855 25.25 -16.6 2.2 73 -20.4 -4.7
10:30 1026 30.3 855 25.25 -16.5 2.4 73 -20.2 -4.4
10:35 1026 30.3 855 25.25 -16.2 2.8 72 -20.2 -4.4
10:40 1026 30.3 855 25.25 -16.2 2.9 72 -20.1 -4.2
10:45 1026 30.3 855 25.25 -16.1 3.1 72 -19.9 -3.9
10:50 1026 30.3 855 25.25 -15.8 3.7 71 -19.9 -3.9
10:55 1026 30.3 855 25.25 -15.6 4 71 -19.7 -3.5
11:00 1026 30.3 855 25.25 -15.3 4.4 69 -19.8 -3.6
11:05 1026 30.3 855 25.25 -15.3 4.4 69 -19.9 -3.8
11:10 1026 30.3 855 25.25 -15.6 4 68 -20.2 -4.3
11:15 1026 30.3 856 25.28 -15.4 4.3 69 -19.9 -3.8
11:20 1026 30.3 856 25.28 -15.5 4.2 71 -19.6 -3.3
11:25 1026 30.3 856 25.28 -15.4 4.3 67 -20.2 -4.3
11:30 1026 30.3 856 25.28 -15.5 4.2 69 -19.9 -3.8
11:35 1027 30.33 856 25.28 -15.3 4.4 68 -19.9 -3.8
11:40 1027 30.33 856 25.28 -15.4 4.2 68 -20 -4.1
11:45 1027 30.33 856 25.28 -15.3 4.4 67 -20.1 -4.2
11:50 1027 30.33 856 25.28 -15.2 4.6 67 -20.1 -4.1
11:55 1027 30.33 856 25.28 -15.3 4.6 68 -19.9 -3.9
12:00 1027 30.33 856 25.28 -14.9 5.1 65 -20 -4.1
12:05 1027 30.33 856 25.28 -15.2 4.6 68 -19.9 -3.8
12:10 1027 30.33 856 25.28 -15.2 4.6 69 -19.8 -3.6
12:15 1027 30.33 856 25.28 -15 5.1 66 -20 -4
12:20 1027 30.33 856 25.28 -14.9 5.2 67 -19.7 -3.5
12:25 1027 30.33 856 25.28 -14.8 5.4 64 -20.1 -4.2
12:30 1027 30.33 856 25.28 -15.4 4.2 67 -20.2 -4.4
12:35 1027 30.33 856 25.28 -15.2 4.7 65 -20.3 -4.5
12:40 1027 30.33 856 25.28 -14.8 5.3 64 -20.3 -4.5
12:45 1027 30.33 856 25.28 -14.5 5.9 64 -19.8 -3.7
12:50 1027 30.33 856 25.28 -14.2 6.4 61 -20.1 -4.2
12:55 1027 30.33 856 25.28 -14.5 5.9 63 -20.1 -4.2
13:00 1027 30.33 856 25.28 -14.9 5.2 62 -20.7 -5.3
13:05 1027 30.33 856 25.28 -15.4 4.4 64 -20.7 -5.3
13:10 1027 30.33 856 25.28 -15.6 3.9 66 -20.6 -5
13:15 1027 30.33 856 25.28 -14.8 5.3 61 -20.8 -5.4
13:20 1027 30.33 856 25.28 -15.1 4.9 63 -20.5 -5
13:25 1027 30.33 856 25.28 -14.8 5.4 63 -20.5 -4.8
13:30 1026 30.3 856 25.28 -14.2 6.4 59 -20.6 -5
13:35 1026 30.3 856 25.28 -13.6 7.4 57 -20.4 -4.7
13:40 1026 30.3 856 25.28 -13.4 7.9 58 -19.9 -3.9
13:45 1026 30.3 856 25.28 -13.4 7.8 58 -20 -4
13:50 1026 30.3 856 25.28 -13.2 8.3 55 -20.4 -4.7
13:55 1027 30.33 856 25.28 -13.3 8 56 -20.4 -4.8
14:00 1027 30.33 856 25.28 -13.5 7.7 59 -19.9 -3.9
14:05 1027 30.33 856 25.28 -13.7 7.4 59 -20 -4
14:10 1027 30.33 856 25.28 -14 6.8 60 -20.2 -4.4
14:15 1027 30.33 856 25.28 -14.1 6.6 61 -20 -4
14:20 1027 30.33 856 25.28 -14.1 6.6 59 -20.4 -4.7
14:25 1027 30.33 856 25.28 -14.6 5.8 62 -20.3 -4.5
14:30 1027 30.33 856 25.28 -14.2 6.4 60 -20.3 -4.5
14:35 1027 30.33 856 25.28 -14.2 6.4 60 -20.4 -4.8
14:40 1027 30.33 856 25.28 -14.7 5.5 61 -20.7 -5.2
14:45 1026 30.3 856 25.28 -14.7 5.5 62 -20.5 -4.8
14:50 1027 30.33 856 25.28 -14 6.8 58 -20.6 -5.1
14:55 1027 30.33 856 25.28 -13.9 7 59 -20.3 -4.5
15:00 1027 30.33 856 25.28 -14.1 6.6 62 -20 -4
15:05 1027 30.33 856 25.28 -13.3 8 56 -20.3 -4.6
15:10 1027 30.33 856 25.28 -12.8 8.9 57 -19.8 -3.6
15:15 1027 30.33 856 25.28 -12.8 9.1 56 -19.7 -3.5
15:20 1027 30.33 856 25.28 -13.2 8.2 56 -20.2 -4.3
15:25 1027 30.33 856 25.28 -13.4 8 59 -19.7 -3.4
15:30 1027 30.33 856 25.28 -13.2 8.2 58 -19.7 -3.5
15:35 1027 30.33 856 25.28 -12.9 8.7 57 -19.8 -3.7
15:40 1027 30.33 856 25.28 -13.4 7.9 62 -19.3 -2.7
15:45 1027 30.33 856 25.28 -13.6 7.6 61 -19.6 -3.2
15:50 1027 30.33 856 25.28 -13.8 7.1 62 -19.6 -3.3
15:55 1027 30.33 856 25.28 -13.9 7 62 -19.8 -3.6
16:00 1027 30.33 856 25.28 -14 6.8 61 -20 -4.1
16:05 1027 30.33 856 25.28 -14.3 6.2 62 -20 -4.1
16:10 1027 30.33 856 25.28 -14.1 6.6 60 -20.3 -4.6
16:15 1027 30.33 856 25.28 -14 6.8 61 -20 -4
16:20 1027 30.33 856 25.28 -14.1 6.6 59 -20.4 -4.8
16:25 1027 30.33 856 25.28 -14.8 5.3 62 -20.5 -4.9
16:30 1027 30.33 856 25.28 -14.8 5.4 62 -20.6 -5.1
16:35 1027 30.33 856 25.28 -14.4 6.2 60 -20.6 -5
16:40 1027 30.33 856 25.28 -14.5 5.9 60 -20.6 -5.2
16:45 1027 30.33 856 25.28 -14.1 6.7 57 -20.7 -5.3
16:50 1027 30.33 856 25.28 -14.2 6.5 60 -20.4 -4.8
16:55 1027 30.33 856 25.28 -14.2 6.4 59 -20.6 -5.1
17:00 1027 30.33 856 25.28 -14 6.9 59 -20.3 -4.6
17:05 1027 30.33 856 25.28 -14 6.7 59 -20.5 -4.8
17:10 1027 30.33 856 25.28 -14.5 5.8 61 -20.5 -4.9
17:15 1027 30.33 856 25.28 -15.2 4.6 63 -20.7 -5.3
17:20 1027 30.33 856 25.28 -15.3 4.4 65 -20.6 -5
17:25 1027 30.33 857 25.31 -15.3 4.6 64 -20.5 -5
17:30 1027 30.33 857 25.31 -15.2 4.6 64 -20.6 -5.1
17:35 1027 30.33 857 25.31 -15.2 4.6 64 -20.6 -5.1
17:40 1027 30.33 857 25.31 -15.2 4.6 63 -20.7 -5.3
17:45 1027 30.33 857 25.31 -15.2 4.7 64 -20.4 -4.8
17:50 1027 30.33 857 25.31 -15.1 4.9 64 -20.5 -4.9
17:55 1027 30.33 857 25.31 -15.1 4.8 64 -20.5 -4.8
18:00 1027 30.33 857 25.31 -14.9 5.1 63 -20.5 -4.8
18:05 1027 30.33 857 25.31 -14.9 5.1 63 -20.5 -4.9
18:10 1027 30.33 857 25.31 -15.3 4.5 66 -20.4 -4.6
18:15 1027 30.33 857 25.31 -15.1 4.7 65 -20.4 -4.7
18:20 1027 30.33 857 25.31 -15.1 4.9 63 -20.7 -5.2
18:25 1027 30.33 857 25.31 -15.4 4.3 63 -20.9 -5.6
18:30 1027 30.33 857 25.31 -15.5 4 64 -20.8 -5.5
18:35 1027 30.33 857 25.31 -15.6 3.9 64 -20.9 -5.7
18:40 1028 30.36 857 25.31 -15.6 3.9 64 -21 -5.7
18:45 1028 30.36 857 25.31 -15.8 3.6 65 -20.9 -5.6
18:50 1028 30.36 857 25.31 -15.8 3.5 65 -21 -5.7
18:55 1028 30.36 857 25.31 -15.7 3.7 65 -20.9 -5.6
19:00 1028 30.36 857 25.31 -15.5 4 66 -20.6 -5.1
19:05 1028 30.36 857 25.31 -15.5 4.1 66 -20.5 -5
19:10 1028 30.36 857 25.31 -15.4 4.3 65 -20.6 -5
19:15 1028 30.36 857 25.31 -15.5 4 67 -20.3 -4.6
19:20 1028 30.36 857 25.31 -15.6 4 66 -20.5 -4.9
19:25 1028 30.36 857 25.31 -15.6 3.9 67 -20.4 -4.7
19:30 1028 30.36 857 25.31 -15.5 4.1 68 -20.2 -4.3
19:35 1028 30.36 857 25.31 -15.6 3.9 68 -20.3 -4.6
19:40 1028 30.36 857 25.31 -15.8 3.6 68 -20.3 -4.6
19:45 1028 30.36 857 25.31 -15.7 3.7 68 -20.3 -4.6
19:50 1028 30.36 857 25.31 -15.7 3.8 69 -20.1 -4.2
19:55 1028 30.36 857 25.31 -15.6 3.9 69 -20 -4.1
20:00 1028 30.36 857 25.31 -15.5 4.1 70 -19.8 -3.7
20:05 1028 30.36 857 25.31 -15.5 4.2 70 -19.7 -3.5
20:10 1028 30.36 857 25.31 -15.5 4.1 70 -19.7 -3.5
20:15 1028 30.36 857 25.31 -15.6 3.9 70 -19.9 -3.8
20:20 1028 30.36 857 25.31 -15.7 3.7 72 -19.7 -3.5
20:25 1028 30.36 857 25.31 -15.7 3.8 72 -19.6 -3.3
20:30 1028 30.36 857 25.31 -15.6 4 72 -19.6 -3.3
20:35 1028 30.36 857 25.31 -15.4 4.3 71 -19.6 -3.2
20:40 1028 30.36 857 25.31 -15.4 4.4 71 -19.5 -3
20:45 1028 30.36 857 25.31 -15.4 4.4 69 -19.8 -3.6
20:50 1028 30.36 857 25.31 -15.5 4.1 70 -19.7 -3.5
20:55 1028 30.36 857 25.31 -15.5 4.2 70 -19.8 -3.6
21:00 1028 30.36 857 25.31 -15.5 4.2 70 -19.8 -3.6
21:05 1028 30.36 857 25.31 -15.5 4.1 71 -19.7 -3.4
21:10 1028 30.36 857 25.31 -15.5 4.1 70 -19.7 -3.5
21:15 1028 30.36 857 25.31 -15.5 4 71 -19.6 -3.4
21:20 1028 30.36 857 25.31 -15.5 4.1 72 -19.5 -3.2
21:25 1028 30.36 857 25.31 -15.5 4.2 71 -19.5 -3.1
21:30 1028 30.36 857 25.31 -15.4 4.2 71 -19.5 -3.1
21:35 1028 30.36 857 25.31 -15.5 4.1 72 -19.5 -3.2
21:40 1028 30.36 857 25.31 -15.4 4.2 71 -19.6 -3.2
21:45 1028 30.36 857 25.31 -15.4 4.3 71 -19.5 -3.2
21:50 1028 30.36 857 25.31 -15.4 4.2 71 -19.6 -3.3
21:55 1028 30.36 857 25.31 -15.5 4.1 72 -19.6 -3.2
22:00 1028 30.36 857 25.31 -15.5 4.1 72 -19.4 -2.9
22:05 1028 30.36 857 25.31 -15.4 4.3 73 -19.3 -2.7
22:10 1028 30.36 857 25.31 -15.4 4.4 72 -19.4 -2.9
22:15 1028 30.36 857 25.31 -15.4 4.3 72 -19.3 -2.8
22:20 1028 30.36 857 25.31 -15.3 4.4 73 -19.1 -2.4
22:25 1028 30.36 857 25.31 -15.1 4.8 73 -19 -2.1
22:30 1028 30.36 857 25.31 -15 5 72 -18.9 -2
22:35 1028 30.36 857 25.31 -15 5.1 72 -18.9 -2
22:40 1028 30.36 857 25.31 -14.9 5.2 72 -18.8 -1.9
22:45 1028 30.36 857 25.31 -14.8 5.4 73 -18.7 -1.6
22:50 1028 30.36 857 25.31 -14.7 5.5 71 -18.9 -2
22:55 1028 30.36 857 25.31 -15 4.9 73 -18.9 -2
23:00 1028 30.36 857 25.31 -15.2 4.7 75 -18.7 -1.7
23:05 1028 30.36 857 25.31 -15 5 73 -18.9 -2
23:10 1028 30.36 857 25.31 -14.9 5.3 72 -18.9 -2
23:15 1028 30.36 857 25.31 -14.9 5.3 72 -18.8 -1.9
23:20 1028 30.36 857 25.31 -14.9 5.1 71 -19.1 -2.4
23:25 1028 30.36 857 25.31 -15.2 4.6 73 -19.1 -2.3
23:30 1028 30.36 857 25.31 -15.1 4.9 72 -19 -2.2
23:35 1028 30.36 857 25.31 -14.9 5.1 71 -19.1 -2.3
23:40 1028 30.36 857 25.31 -15 5 71 -19.1 -2.4
23:45 1028 30.36 857 25.31 -15.1 4.8 73 -18.9 -2
23:50 1028 30.36 857 25.31 -15 5 72 -19 -2.1
23:55 1028 30.36 857 25.31 -14.9 5.1 72 -18.9 -2
24:00 1028 30.36 857 25.31 -15 5.1 72 -18.9 -2